createdAt,value
2019-04-09T00:00:31.115Z,80.62
2019-04-09T00:01:31.109Z,80.33
2019-04-09T00:02:31.761Z,80.43
2019-04-09T00:03:31.783Z,80.62
2019-04-09T00:04:31.097Z,80.62
2019-04-09T00:05:31.683Z,81.00
2019-04-09T00:06:31.659Z,81.00
2019-04-09T00:07:31.080Z,80.81
2019-04-09T00:08:31.672Z,80.14
2019-04-09T00:09:31.076Z,80.33
2019-04-09T00:10:31.069Z,80.52
2019-04-09T00:11:31.066Z,81.10
2019-04-09T00:12:31.558Z,81.29
2019-04-09T00:13:31.899Z,80.90
2019-04-09T00:14:31.852Z,81.20
2019-04-09T00:15:31.799Z,81.10
2019-04-09T00:16:31.526Z,81.57
2019-04-09T00:17:31.036Z,80.90
2019-04-09T00:18:31.575Z,81.10
2019-04-09T00:19:31.025Z,81.00
2019-04-09T00:20:31.013Z,81.48
2019-04-09T00:21:31.652Z,81.29
2019-04-09T00:22:31.008Z,81.44
2019-04-09T00:23:31.002Z,81.15
2019-04-09T00:24:30.993Z,81.15
2019-04-09T00:25:30.987Z,81.05
2019-04-09T00:26:42.462Z,81.54
2019-04-09T00:27:30.982Z,81.44
2019-04-09T00:28:31.267Z,81.44
2019-04-09T00:29:30.978Z,81.34
2019-04-09T00:30:31.268Z,81.54
2019-04-09T00:31:31.213Z,82.01
2019-04-09T00:32:30.957Z,82.20
2019-04-09T00:33:31.103Z,82.30
2019-04-09T00:34:31.531Z,82.49
2019-04-09T00:35:30.937Z,81.92
2019-04-09T00:36:31.568Z,82.30
2019-04-09T00:37:31.463Z,81.82
2019-04-09T00:38:31.388Z,81.92
2019-04-09T00:39:30.916Z,81.82
2019-04-09T00:40:30.916Z,81.63
2019-04-09T00:41:31.497Z,81.82
2019-04-09T00:42:31.483Z,82.59
2019-04-09T00:43:30.949Z,82.49
2019-04-09T00:44:30.895Z,82.30
2019-04-09T00:45:30.887Z,82.78
2019-04-09T00:46:31.689Z,82.49
2019-04-09T00:47:30.881Z,82.49
2019-04-09T00:48:31.756Z,82.49
2019-04-09T00:49:31.804Z,82.83
2019-04-09T00:50:30.963Z,83.03
2019-04-09T00:51:31.046Z,82.74
2019-04-09T00:52:30.854Z,82.74
2019-04-09T00:53:30.850Z,82.74
2019-04-09T00:54:31.588Z,83.50
2019-04-09T00:55:30.943Z,82.93
2019-04-09T00:56:31.707Z,82.93
2019-04-09T00:57:31.184Z,83.03
2019-04-09T00:58:30.823Z,83.40
2019-04-09T00:59:30.820Z,83.60
2019-04-09T01:00:30.809Z,83.12
2019-04-09T01:01:30.802Z,83.22
2019-04-09T01:02:30.803Z,83.31
2019-04-09T01:03:30.791Z,83.22
2019-04-09T01:04:30.792Z,83.31
2019-04-09T01:05:30.784Z,83.50
2019-04-09T01:06:31.420Z,83.79
2019-04-09T01:07:30.772Z,83.79
2019-04-09T01:08:31.606Z,83.98
2019-04-09T01:09:30.757Z,83.60
2019-04-09T01:10:30.756Z,83.89
2019-04-09T01:11:31.571Z,83.60
2019-04-09T01:12:30.741Z,83.79
2019-04-09T01:13:30.824Z,83.79
2019-04-09T01:14:31.559Z,84.27
2019-04-09T01:15:30.965Z,84.08
2019-04-09T01:16:31.788Z,83.69
2019-04-09T01:17:31.698Z,83.65
2019-04-09T01:18:30.713Z,83.60
2019-04-09T01:19:31.666Z,83.75
2019-04-09T01:20:31.734Z,84.23
2019-04-09T01:21:31.522Z,84.03
2019-04-09T01:22:30.865Z,84.03
2019-04-09T01:23:30.738Z,84.42
2019-04-09T01:24:35.370Z,83.65
2019-04-09T01:25:30.885Z,84.23
2019-04-09T01:26:30.818Z,84.61
2019-04-09T01:27:30.896Z,84.52
2019-04-09T01:28:30.875Z,84.42
2019-04-09T01:29:30.648Z,84.80
2019-04-09T01:30:30.644Z,84.32
2019-04-09T01:31:30.639Z,84.80
2019-04-09T01:32:31.273Z,84.89
2019-04-09T01:33:31.023Z,84.89
2019-04-09T01:34:30.617Z,84.70
2019-04-09T01:35:31.156Z,84.99
2019-04-09T01:36:31.079Z,84.61
2019-04-09T01:37:30.972Z,84.32
2019-04-09T01:38:30.755Z,84.70
2019-04-09T01:39:30.591Z,84.89
2019-04-09T01:40:30.582Z,84.61
2019-04-09T01:41:31.146Z,84.61
2019-04-09T01:42:31.184Z,84.80
2019-04-09T01:43:30.567Z,84.89
2019-04-09T01:44:30.558Z,85.57
2019-04-09T01:45:30.551Z,85.09
2019-04-09T01:46:30.932Z,85.47
2019-04-09T01:47:30.826Z,85.66
2019-04-09T01:48:30.542Z,85.62
2019-04-09T01:49:30.534Z,85.62
2019-04-09T01:50:31.051Z,85.90
2019-04-09T01:51:31.091Z,85.62
2019-04-09T01:52:30.512Z,85.90
2019-04-09T01:53:30.505Z,85.81
2019-04-09T01:54:30.502Z,86.10
2019-04-09T01:55:30.495Z,85.90
2019-04-09T01:56:31.120Z,86.10
2019-04-09T01:57:33.278Z,86.19
2019-04-09T01:58:31.032Z,86.47
2019-04-09T01:59:30.895Z,86.10
2019-04-09T02:00:30.470Z,86.00
2019-04-09T02:01:30.463Z,86.67
2019-04-09T02:02:31.237Z,86.57
2019-04-09T02:03:31.351Z,87.05
2019-04-09T02:04:30.550Z,87.34
2019-04-09T02:05:30.433Z,87.53
2019-04-09T02:06:30.426Z,87.05
2019-04-09T02:07:30.608Z,87.24
2019-04-09T02:08:30.433Z,87.34
2019-04-09T02:09:30.410Z,87.43
2019-04-09T02:10:31.315Z,87.24
2019-04-09T02:11:30.401Z,87.48
2019-04-09T02:12:30.840Z,87.01
2019-04-09T02:13:30.384Z,87.48
2019-04-09T02:14:30.383Z,87.48
2019-04-09T02:15:30.377Z,87.39
2019-04-09T02:16:30.367Z,87.87
2019-04-09T02:17:30.580Z,87.77
2019-04-09T02:18:30.352Z,88.06
2019-04-09T02:19:30.345Z,87.96
2019-04-09T02:20:30.885Z,87.77
2019-04-09T02:21:30.804Z,87.48
2019-04-09T02:22:30.768Z,87.87
2019-04-09T02:23:30.326Z,87.29
2019-04-09T02:24:30.730Z,87.87
2019-04-09T02:25:30.780Z,88.63
2019-04-09T02:26:30.746Z,87.96
2019-04-09T02:27:40.071Z,88.63
2019-04-09T02:28:30.453Z,88.15
2019-04-09T02:29:31.152Z,88.73
2019-04-09T02:30:31.001Z,88.15
2019-04-09T02:31:30.798Z,88.92
2019-04-09T02:32:32.127Z,88.73
2019-04-09T02:33:31.635Z,88.49
2019-04-09T02:34:31.735Z,88.92
2019-04-09T02:35:30.328Z,88.59
2019-04-09T02:36:31.574Z,88.68
2019-04-09T02:37:30.470Z,88.59
2019-04-09T02:38:30.223Z,89.06
2019-04-09T02:39:30.676Z,89.16
2019-04-09T02:40:30.225Z,88.49
2019-04-09T02:41:30.206Z,89.06
2019-04-09T02:42:30.837Z,89.16
2019-04-09T02:43:30.796Z,89.16
2019-04-09T02:44:30.950Z,89.06
2019-04-09T02:45:30.974Z,89.16
2019-04-09T02:46:30.793Z,89.45
2019-04-09T02:47:30.168Z,89.25
2019-04-09T02:48:30.159Z,89.06
2019-04-09T02:49:30.750Z,89.45
2019-04-09T02:50:30.677Z,89.64
2019-04-09T02:51:30.137Z,89.83
2019-04-09T02:52:30.135Z,89.45
2019-04-09T02:53:30.128Z,90.11
2019-04-09T02:54:30.123Z,89.54
2019-04-09T02:55:31.125Z,89.64
2019-04-09T02:56:30.382Z,89.83
2019-04-09T02:57:30.399Z,89.73
2019-04-09T02:58:31.055Z,89.54
2019-04-09T02:59:30.281Z,90.21
2019-04-09T03:00:30.168Z,89.54
2019-04-09T03:01:30.073Z,90.02
2019-04-09T03:02:30.169Z,89.97
2019-04-09T03:03:31.113Z,89.83
2019-04-09T03:04:31.179Z,89.64
2019-04-09T03:05:30.859Z,90.21
2019-04-09T03:06:30.180Z,90.07
2019-04-09T03:07:30.034Z,90.31
2019-04-09T03:08:30.864Z,90.26
2019-04-09T03:09:30.900Z,89.97
2019-04-09T03:10:30.012Z,90.45
2019-04-09T03:11:30.003Z,90.69
2019-04-09T03:12:29.999Z,91.02
2019-04-09T03:13:29.993Z,90.55
2019-04-09T03:14:30.562Z,90.78
2019-04-09T03:15:29.977Z,90.93
2019-04-09T03:16:29.966Z,90.55
2019-04-09T03:17:29.957Z,90.55
2019-04-09T03:18:29.956Z,90.36
2019-04-09T03:19:29.949Z,90.26
2019-04-09T03:20:29.938Z,90.55
2019-04-09T03:21:30.161Z,90.73
2019-04-09T03:22:29.925Z,90.64
2019-04-09T03:23:29.919Z,90.36
2019-04-09T03:24:30.489Z,90.45
2019-04-09T03:25:30.416Z,90.83
2019-04-09T03:26:30.866Z,90.73
2019-04-09T03:27:29.898Z,90.73
2019-04-09T03:28:30.693Z,90.55
2019-04-09T03:29:30.188Z,90.55
2019-04-09T03:30:30.693Z,90.64
2019-04-09T03:31:31.916Z,91.12
2019-04-09T03:32:31.299Z,90.45
2019-04-09T03:33:31.713Z,91.02
2019-04-09T03:34:30.377Z,90.93
2019-04-09T03:35:29.837Z,90.55
2019-04-09T03:36:29.831Z,90.93
2019-04-09T03:37:29.825Z,90.73
2019-04-09T03:38:30.584Z,91.02
2019-04-09T03:39:29.812Z,90.93
2019-04-09T03:40:29.803Z,90.73
2019-04-09T03:41:30.577Z,91.21
2019-04-09T03:42:30.572Z,91.50
2019-04-09T03:43:29.781Z,90.73
2019-04-09T03:44:29.782Z,90.64
2019-04-09T03:45:29.770Z,90.83
2019-04-09T03:46:29.970Z,91.46
2019-04-09T03:47:30.042Z,91.07
2019-04-09T03:48:29.743Z,91.07
2019-04-09T03:49:30.023Z,91.46
2019-04-09T03:50:29.863Z,91.55
2019-04-09T03:51:29.728Z,91.46
2019-04-09T03:52:29.718Z,91.55
2019-04-09T03:53:30.635Z,91.46
2019-04-09T03:54:30.760Z,91.64
2019-04-09T03:55:29.705Z,91.93
2019-04-09T03:56:30.185Z,91.27
2019-04-09T03:57:30.256Z,91.46
2019-04-09T03:58:29.685Z,91.74
2019-04-09T03:59:29.669Z,91.55
2019-04-09T04:00:30.502Z,91.36
2019-04-09T04:01:30.624Z,91.83
2019-04-09T04:02:30.486Z,91.83
2019-04-09T04:03:29.642Z,91.64
2019-04-09T04:04:29.887Z,91.69
2019-04-09T04:05:29.974Z,91.60
2019-04-09T04:06:30.083Z,91.79
2019-04-09T04:07:29.614Z,92.46
2019-04-09T04:08:29.606Z,92.50
2019-04-09T04:09:29.597Z,92.27
2019-04-09T04:10:29.589Z,92.46
2019-04-09T04:11:29.739Z,92.36
2019-04-09T04:12:29.570Z,92.08
2019-04-09T04:13:29.564Z,92.12
2019-04-09T04:14:29.554Z,92.17
2019-04-09T04:15:30.366Z,92.27
2019-04-09T04:16:30.425Z,91.88
2019-04-09T04:17:29.849Z,92.17
2019-04-09T04:18:29.845Z,92.08
2019-04-09T04:19:29.524Z,92.27
2019-04-09T04:20:29.513Z,92.65
2019-04-09T04:21:29.873Z,92.27
2019-04-09T04:22:29.499Z,92.65
2019-04-09T04:23:29.493Z,92.36
2019-04-09T04:24:30.359Z,91.79
2019-04-09T04:25:29.474Z,92.08
2019-04-09T04:26:29.463Z,92.27
2019-04-09T04:27:29.761Z,92.46
2019-04-09T04:28:35.050Z,92.55
2019-04-09T04:29:29.445Z,92.55
2019-04-09T04:30:30.106Z,92.17
2019-04-09T04:31:30.143Z,92.17
2019-04-09T04:32:29.441Z,92.27
2019-04-09T04:33:29.413Z,92.36
2019-04-09T04:34:29.406Z,92.65
2019-04-09T04:35:29.408Z,92.55
2019-04-09T04:36:29.395Z,92.08
2019-04-09T04:37:29.391Z,92.17
2019-04-09T04:38:29.373Z,92.08
2019-04-09T04:39:29.366Z,92.17
2019-04-09T04:40:29.366Z,92.36
2019-04-09T04:41:30.178Z,92.36
2019-04-09T04:42:29.709Z,92.27
2019-04-09T04:43:29.338Z,92.27
2019-04-09T04:44:29.328Z,92.27
2019-04-09T04:45:29.317Z,92.65
2019-04-09T04:46:29.327Z,92.55
2019-04-09T04:47:30.131Z,92.84
2019-04-09T04:48:29.322Z,92.93
2019-04-09T04:49:29.310Z,92.84
2019-04-09T04:50:29.287Z,92.65
2019-04-09T04:51:29.280Z,92.65
2019-04-09T04:52:30.004Z,92.55
2019-04-09T04:53:29.259Z,92.46
2019-04-09T04:54:30.045Z,92.65
2019-04-09T04:55:29.247Z,92.46
2019-04-09T04:56:29.947Z,92.55
2019-04-09T04:57:29.440Z,92.46
2019-04-09T04:58:38.318Z,92.84
2019-04-09T04:59:29.212Z,92.55
2019-04-09T05:00:29.208Z,92.17
2019-04-09T05:01:29.202Z,92.65
2019-04-09T05:02:29.231Z,92.65
2019-04-09T05:03:29.184Z,92.93
2019-04-09T05:04:29.546Z,92.17
2019-04-09T05:05:29.170Z,92.17
2019-04-09T05:06:29.686Z,92.46
2019-04-09T05:07:36.409Z,92.55
2019-04-09T05:08:29.855Z,92.17
2019-04-09T05:09:29.140Z,92.55
2019-04-09T05:10:29.951Z,92.46
2019-04-09T05:11:29.123Z,91.88
2019-04-09T05:12:29.922Z,91.98
2019-04-09T05:13:29.109Z,92.17
2019-04-09T05:14:29.728Z,92.27
2019-04-09T05:15:29.093Z,92.36
2019-04-09T05:16:29.079Z,92.36
2019-04-09T05:17:29.076Z,92.55
2019-04-09T05:18:29.063Z,92.46
2019-04-09T05:19:29.056Z,92.17
2019-04-09T05:20:29.179Z,92.08
2019-04-09T05:21:29.047Z,92.27
2019-04-09T05:22:30.847Z,92.27
2019-04-09T05:23:29.715Z,92.27
2019-04-09T05:24:29.022Z,92.27
2019-04-09T05:25:29.420Z,92.46
2019-04-09T05:26:29.010Z,92.08
2019-04-09T05:27:29.005Z,92.27
2019-04-09T05:28:29.012Z,91.69
2019-04-09T05:29:29.654Z,92.46
2019-04-09T05:30:29.065Z,91.79
2019-04-09T05:31:28.967Z,91.93
2019-04-09T05:32:29.799Z,91.36
2019-04-09T05:33:28.955Z,91.46
2019-04-09T05:34:29.723Z,91.46
2019-04-09T05:35:29.346Z,91.64
2019-04-09T05:36:28.936Z,90.69
2019-04-09T05:37:28.988Z,90.69
2019-04-09T05:38:29.264Z,91.07
2019-04-09T05:39:28.912Z,90.41
2019-04-09T05:40:28.909Z,90.31
2019-04-09T05:41:29.837Z,90.22
2019-04-09T05:42:28.890Z,90.03
2019-04-09T05:43:28.880Z,90.31
2019-04-09T05:44:29.431Z,89.93
2019-04-09T05:45:29.818Z,89.64
2019-04-09T05:46:29.851Z,89.83
2019-04-09T05:47:28.857Z,90.12
2019-04-09T05:48:29.655Z,90.03
2019-04-09T05:49:29.745Z,90.31
2019-04-09T05:50:29.854Z,90.22
2019-04-09T05:51:28.823Z,90.03
2019-04-09T05:52:29.110Z,90.12
2019-04-09T05:53:28.809Z,90.12
2019-04-09T05:54:28.806Z,90.12
2019-04-09T05:55:28.912Z,90.31
2019-04-09T05:56:29.784Z,89.83
2019-04-09T05:57:28.782Z,89.83
2019-04-09T05:58:29.678Z,90.12
2019-04-09T05:59:29.028Z,90.22
2019-04-09T06:00:28.770Z,91.17
2019-04-09T06:01:29.619Z,90.59
2019-04-09T06:02:29.660Z,90.98
2019-04-09T06:03:28.851Z,90.69
2019-04-09T06:04:28.755Z,90.88
2019-04-09T06:05:28.956Z,90.79
2019-04-09T06:06:29.498Z,90.79
2019-04-09T06:07:29.150Z,90.79
2019-04-09T06:08:29.631Z,90.59
2019-04-09T06:09:29.078Z,90.79
2019-04-09T06:10:28.687Z,90.98
2019-04-09T06:11:28.697Z,91.17
2019-04-09T06:12:28.958Z,91.17
2019-04-09T06:13:29.310Z,90.59
2019-04-09T06:14:28.662Z,90.69
2019-04-09T06:15:28.858Z,90.79
2019-04-09T06:16:29.440Z,90.79
2019-04-09T06:17:29.536Z,90.59
2019-04-09T06:18:28.642Z,90.69
2019-04-09T06:19:28.633Z,90.59
2019-04-09T06:20:28.622Z,90.98
2019-04-09T06:21:32.059Z,90.69
2019-04-09T06:22:29.543Z,91.27
2019-04-09T06:23:28.604Z,91.46
2019-04-09T06:24:29.284Z,90.69
2019-04-09T06:25:29.838Z,90.79
2019-04-09T06:26:28.611Z,91.36
2019-04-09T06:27:28.574Z,90.50
2019-04-09T06:28:28.565Z,91.07
2019-04-09T06:29:28.572Z,91.07
2019-04-09T06:30:29.386Z,91.46
2019-04-09T06:31:28.645Z,91.17
2019-04-09T06:32:28.892Z,91.74
2019-04-09T06:33:28.530Z,91.46
2019-04-09T06:34:28.529Z,91.31
2019-04-09T06:35:28.517Z,91.64
2019-04-09T06:36:28.516Z,91.93
2019-04-09T06:37:28.507Z,91.31
2019-04-09T06:38:29.392Z,91.41
2019-04-09T06:39:28.494Z,91.93
2019-04-09T06:40:28.571Z,91.46
2019-04-09T06:41:28.480Z,91.17
2019-04-09T06:42:28.466Z,91.17
2019-04-09T06:43:28.461Z,91.46
2019-04-09T06:44:28.659Z,91.36
2019-04-09T06:45:28.451Z,91.17
2019-04-09T06:46:28.436Z,91.46
2019-04-09T06:47:28.668Z,91.27
2019-04-09T06:48:29.222Z,91.07
2019-04-09T06:49:28.419Z,91.07
2019-04-09T06:50:29.286Z,91.17
2019-04-09T06:51:34.389Z,91.64
2019-04-09T06:52:28.516Z,91.64
2019-04-09T06:53:28.959Z,91.74
2019-04-09T06:54:28.449Z,91.46
2019-04-09T06:55:29.094Z,92.32
2019-04-09T06:56:28.490Z,91.93
2019-04-09T06:57:28.366Z,91.64
2019-04-09T06:58:28.361Z,91.74
2019-04-09T06:59:31.790Z,91.74
2019-04-09T07:00:28.537Z,92.22
2019-04-09T07:01:28.821Z,92.32
2019-04-09T07:02:28.329Z,92.50
2019-04-09T07:03:28.322Z,92.60
2019-04-09T07:04:28.315Z,92.50
2019-04-09T07:05:28.305Z,92.32
2019-04-09T07:06:28.480Z,92.41
2019-04-09T07:07:28.302Z,92.79
2019-04-09T07:08:29.011Z,92.46
2019-04-09T07:09:29.286Z,92.65
2019-04-09T07:10:28.274Z,93.22
2019-04-09T07:11:28.691Z,93.03
2019-04-09T07:12:29.174Z,93.03
2019-04-09T07:13:28.248Z,92.55
2019-04-09T07:14:28.642Z,93.12
2019-04-09T07:15:29.075Z,93.08
2019-04-09T07:16:28.234Z,93.32
2019-04-09T07:17:31.056Z,93.03
2019-04-09T07:18:29.255Z,93.12
2019-04-09T07:19:29.225Z,93.12
2019-04-09T07:20:28.205Z,92.93
2019-04-09T07:21:28.617Z,93.12
2019-04-09T07:22:28.900Z,93.03
2019-04-09T07:23:28.181Z,93.41
2019-04-09T07:24:28.169Z,93.55
2019-04-09T07:25:28.168Z,93.17
2019-04-09T07:26:28.154Z,93.36
2019-04-09T07:27:28.630Z,93.08
2019-04-09T07:28:28.148Z,92.69
2019-04-09T07:29:43.720Z,93.17
2019-04-09T07:30:28.284Z,93.27
2019-04-09T07:31:29.618Z,93.08
2019-04-09T07:32:30.382Z,93.46
2019-04-09T07:33:28.711Z,92.98
2019-04-09T07:34:28.866Z,92.98
2019-04-09T07:35:31.817Z,93.17
2019-04-09T07:36:28.804Z,93.46
2019-04-09T07:37:28.123Z,93.08
2019-04-09T07:38:29.136Z,92.98
2019-04-09T07:39:28.673Z,92.69
2019-04-09T07:40:31.617Z,92.50
2019-04-09T07:41:28.049Z,92.79
2019-04-09T07:42:28.042Z,92.50
2019-04-09T07:43:28.035Z,92.41
2019-04-09T07:44:30.305Z,92.79
2019-04-09T07:45:28.017Z,93.27
2019-04-09T07:46:28.136Z,92.50
2019-04-09T07:47:31.415Z,92.69
2019-04-09T07:48:29.995Z,92.79
2019-04-09T07:49:31.226Z,92.69
2019-04-09T07:50:28.217Z,92.88
2019-04-09T07:51:27.984Z,92.22
2019-04-09T07:52:28.306Z,92.12
2019-04-09T07:53:30.176Z,92.22
2019-04-09T07:54:27.956Z,92.32
2019-04-09T07:55:28.741Z,91.93
2019-04-09T07:56:29.763Z,92.12
2019-04-09T07:57:28.247Z,92.60
2019-04-09T07:58:28.645Z,92.32
2019-04-09T07:59:28.730Z,92.12
2019-04-09T08:00:28.885Z,92.41
2019-04-09T08:01:27.905Z,92.22
2019-04-09T08:02:28.488Z,92.41
2019-04-09T08:03:30.660Z,92.50
2019-04-09T08:04:28.169Z,92.36
2019-04-09T08:05:27.928Z,92.46
2019-04-09T08:06:28.965Z,91.98
2019-04-09T08:07:28.537Z,91.88
2019-04-09T08:08:32.149Z,92.12
2019-04-09T08:09:27.971Z,91.83
2019-04-09T08:10:28.349Z,91.78
2019-04-09T08:11:27.879Z,91.31
2019-04-09T08:12:27.831Z,91.27
2019-04-09T08:13:30.605Z,91.69
2019-04-09T08:14:28.010Z,91.60
2019-04-09T08:15:28.999Z,91.69
2019-04-09T08:16:28.725Z,91.60
2019-04-09T08:17:27.794Z,91.41
2019-04-09T08:18:27.784Z,91.17
2019-04-09T08:19:28.147Z,91.31
2019-04-09T08:20:31.848Z,91.60
2019-04-09T08:21:29.173Z,90.98
2019-04-09T08:22:28.705Z,91.88
2019-04-09T08:23:27.749Z,91.41
2019-04-09T08:24:28.232Z,91.98
2019-04-09T08:25:29.496Z,91.50
2019-04-09T08:26:27.739Z,91.41
2019-04-09T08:27:27.823Z,91.02
2019-04-09T08:28:27.719Z,91.41
2019-04-09T08:29:27.710Z,91.31
2019-04-09T08:30:33.943Z,91.21
2019-04-09T08:31:28.685Z,90.93
2019-04-09T08:32:27.698Z,90.64
2019-04-09T08:33:28.501Z,90.73
2019-04-09T08:34:31.263Z,90.93
2019-04-09T08:35:28.361Z,90.93
2019-04-09T08:36:28.352Z,90.55
2019-04-09T08:37:28.310Z,90.21
2019-04-09T08:38:29.829Z,90.21
2019-04-09T08:39:27.648Z,90.26
2019-04-09T08:40:27.636Z,89.83
2019-04-09T08:41:28.660Z,89.50
2019-04-09T08:42:29.503Z,90.07
2019-04-09T08:43:28.720Z,89.78
2019-04-09T08:44:27.617Z,90.07
2019-04-09T08:45:28.397Z,89.59
2019-04-09T08:46:28.651Z,89.78
2019-04-09T08:47:29.268Z,90.17
2019-04-09T08:48:28.416Z,89.83
2019-04-09T08:49:28.453Z,89.25
2019-04-09T08:50:30.303Z,89.83
2019-04-09T08:51:27.565Z,88.49
2019-04-09T08:52:27.563Z,88.64
2019-04-09T08:53:27.845Z,89.02
2019-04-09T08:54:29.639Z,89.35
2019-04-09T08:55:31.214Z,89.16
2019-04-09T08:56:27.541Z,89.25
2019-04-09T08:57:27.533Z,89.06
2019-04-09T08:58:28.807Z,88.87
2019-04-09T08:59:30.775Z,88.15
2019-04-09T09:00:59.732Z,88.82
2019-04-09T09:01:48.829Z,87.54
2019-04-09T09:02:32.531Z,87.44
2019-04-09T09:03:29.522Z,87.82
2019-04-09T09:04:29.997Z,88.40
2019-04-09T09:05:30.846Z,88.01
2019-04-09T09:06:27.479Z,88.73
2019-04-09T09:07:29.216Z,88.34
2019-04-09T09:08:27.462Z,87.35
2019-04-09T09:09:30.492Z,87.96
2019-04-09T09:10:27.506Z,88.06
2019-04-09T09:11:30.992Z,87.77
2019-04-09T09:12:29.556Z,87.20
2019-04-09T09:13:27.731Z,86.63
2019-04-09T09:14:27.432Z,86.67
2019-04-09T09:15:27.423Z,86.57
2019-04-09T09:16:30.587Z,85.90
2019-04-09T09:17:27.502Z,85.42
2019-04-09T09:18:27.402Z,85.33
2019-04-09T09:19:31.786Z,84.95
2019-04-09T09:20:28.208Z,85.29
2019-04-09T09:21:34.123Z,85.52
2019-04-09T09:22:30.158Z,85.90
2019-04-09T09:23:27.945Z,85.90
2019-04-09T09:24:27.373Z,85.33
2019-04-09T09:25:30.869Z,84.56
2019-04-09T09:26:27.543Z,84.85
2019-04-09T09:27:27.367Z,84.38
2019-04-09T09:28:27.352Z,84.85
2019-04-09T09:29:27.346Z,84.47
2019-04-09T09:30:32.733Z,83.84
2019-04-09T09:31:30.915Z,82.98
2019-04-09T09:32:27.333Z,82.89
2019-04-09T09:33:32.887Z,82.79
2019-04-09T09:34:27.447Z,82.51
2019-04-09T09:35:28.811Z,82.60
2019-04-09T09:36:27.311Z,81.93
2019-04-09T09:37:28.052Z,82.60
2019-04-09T09:38:28.032Z,81.40
2019-04-09T09:39:32.101Z,81.59
2019-04-09T09:40:29.661Z,81.11
2019-04-09T09:41:28.242Z,80.38
2019-04-09T09:42:27.693Z,80.00
2019-04-09T09:43:27.810Z,78.66
2019-04-09T09:44:27.280Z,78.42
2019-04-09T09:45:29.698Z,77.84
2019-04-09T09:46:30.004Z,77.84
2019-04-09T09:47:27.264Z,77.50
2019-04-09T09:48:27.256Z,76.00
2019-04-09T09:49:30.899Z,75.23
2019-04-09T09:50:27.250Z,73.45
2019-04-09T09:51:30.048Z,72.88
2019-04-09T09:52:28.001Z,72.63
2019-04-09T09:53:29.766Z,71.47
2019-04-09T09:54:27.243Z,70.99
2019-04-09T09:55:27.242Z,70.61
2019-04-09T09:56:33.660Z,70.93
2019-04-09T09:57:27.995Z,70.64
2019-04-09T09:58:27.237Z,69.68
2019-04-09T09:59:31.941Z,69.40
2019-04-09T10:00:28.431Z,69.53
2019-04-09T10:01:33.123Z,68.24
2019-04-09T10:02:30.721Z,68.24
2019-04-09T10:03:27.224Z,68.05
2019-04-09T10:04:28.248Z,68.05
2019-04-09T10:05:30.783Z,67.61
2019-04-09T10:06:27.871Z,67.51
2019-04-09T10:07:37.923Z,67.07
2019-04-09T10:08:29.890Z,67.25
2019-04-09T10:09:29.238Z,66.97
2019-04-09T10:10:30.168Z,66.77
2019-04-09T10:11:30.393Z,66.87
2019-04-09T10:12:33.273Z,66.04
2019-04-09T10:13:27.519Z,65.66
2019-04-09T10:14:29.404Z,65.01
2019-04-09T10:15:27.496Z,64.02
2019-04-09T10:16:27.657Z,64.15
2019-04-09T10:17:31.605Z,63.73
2019-04-09T10:18:28.581Z,63.73
2019-04-09T10:19:30.046Z,63.57
2019-04-09T10:20:31.174Z,62.80
2019-04-09T10:21:27.217Z,63.12
2019-04-09T10:22:28.122Z,61.93
2019-04-09T10:23:31.025Z,60.23
2019-04-09T10:24:31.364Z,59.84
2019-04-09T10:25:31.179Z,58.44
2019-04-09T10:26:27.341Z,59.66
2019-04-09T10:27:27.344Z,60.52
2019-04-09T10:28:29.587Z,59.75
2019-04-09T10:29:31.074Z,60.33
2019-04-09T10:30:27.937Z,60.33
2019-04-09T10:31:36.800Z,60.55
2019-04-09T10:32:27.990Z,59.62
2019-04-09T10:33:27.236Z,58.44
2019-04-09T10:34:30.128Z,59.20
2019-04-09T10:35:30.894Z,59.49
2019-04-09T10:36:27.251Z,59.49
2019-04-09T10:37:27.252Z,59.23
2019-04-09T10:38:27.527Z,59.36
2019-04-09T10:39:34.009Z,58.52
2019-04-09T10:40:27.870Z,57.59
2019-04-09T10:41:36.105Z,56.33
2019-04-09T10:42:27.259Z,55.36
2019-04-09T10:43:28.347Z,55.56
2019-04-09T10:44:27.270Z,55.41
2019-04-09T10:45:28.539Z,55.31
2019-04-09T10:46:30.902Z,55.99
2019-04-09T10:47:27.275Z,56.85
2019-04-09T10:48:27.284Z,56.90
2019-04-09T10:49:28.531Z,56.90
2019-04-09T10:50:30.605Z,57.37
2019-04-09T10:51:27.863Z,57.79
2019-04-09T10:52:28.577Z,57.95
2019-04-09T10:53:31.613Z,57.69
2019-04-09T10:54:27.819Z,57.62
2019-04-09T10:55:27.302Z,56.66
2019-04-09T10:56:31.260Z,56.18
2019-04-09T10:57:27.312Z,55.77
2019-04-09T10:58:27.421Z,56.18
2019-04-09T10:59:29.749Z,56.25
2019-04-09T11:00:28.262Z,56.54
2019-04-09T11:01:35.490Z,57.50
2019-04-09T11:02:31.549Z,57.05
2019-04-09T11:03:28.394Z,55.46
2019-04-09T11:04:27.597Z,54.79
2019-04-09T11:05:28.398Z,54.43
2019-04-09T11:06:29.292Z,53.99
2019-04-09T11:07:31.628Z,53.89
2019-04-09T11:08:27.350Z,54.38
2019-04-09T11:09:28.463Z,54.11
2019-04-09T11:10:31.035Z,53.51
2019-04-09T11:11:27.362Z,53.96
2019-04-09T11:12:28.558Z,54.57
2019-04-09T11:13:30.995Z,54.21
2019-04-09T11:14:28.455Z,53.92
2019-04-09T11:15:28.305Z,53.92
2019-04-09T11:16:30.432Z,54.05
2019-04-09T11:17:29.741Z,53.49
2019-04-09T11:18:27.629Z,52.55
2019-04-09T11:19:29.437Z,52.07
2019-04-09T11:20:29.470Z,51.97
2019-04-09T11:21:27.405Z,50.89
2019-04-09T11:22:28.146Z,51.82
2019-04-09T11:23:27.415Z,52.11
2019-04-09T11:24:30.051Z,52.19
2019-04-09T11:25:27.511Z,52.42
2019-04-09T11:26:29.231Z,53.94
2019-04-09T11:27:28.561Z,54.83
2019-04-09T11:28:27.907Z,55.31
2019-04-09T11:29:27.601Z,55.55
2019-04-09T11:30:27.447Z,56.05
2019-04-09T11:31:28.407Z,56.92
2019-04-09T11:32:27.450Z,56.73
2019-04-09T11:33:27.455Z,57.09
2019-04-09T11:34:27.850Z,56.67
2019-04-09T11:35:28.212Z,56.96
2019-04-09T11:36:27.463Z,57.70
2019-04-09T11:37:28.282Z,58.40
2019-04-09T11:38:27.786Z,58.89
2019-04-09T11:39:28.128Z,59.37
2019-04-09T11:40:27.477Z,59.49
2019-04-09T11:41:28.587Z,59.20
2019-04-09T11:42:27.605Z,58.31
2019-04-09T11:43:27.837Z,58.95
2019-04-09T11:44:27.493Z,59.56
2019-04-09T11:45:27.482Z,59.47
2019-04-09T11:46:28.405Z,59.44
2019-04-09T11:47:27.513Z,59.34
2019-04-09T11:48:27.843Z,59.47
2019-04-09T11:49:27.499Z,59.72
2019-04-09T11:50:27.807Z,59.53
2019-04-09T11:51:27.916Z,59.53
2019-04-09T11:52:28.033Z,59.72
2019-04-09T11:53:28.142Z,59.34
2019-04-09T11:54:27.495Z,59.05
2019-04-09T11:55:27.497Z,59.53
2019-04-09T11:56:28.351Z,59.82
2019-04-09T11:57:27.490Z,60.46
2019-04-09T11:58:27.715Z,59.82
2019-04-09T11:59:30.824Z,60.24
2019-04-09T12:00:27.922Z,60.37
2019-04-09T12:01:28.220Z,60.53
2019-04-09T12:02:28.392Z,61.20
2019-04-09T12:03:27.498Z,60.91
2019-04-09T12:04:27.664Z,60.63
2019-04-09T12:05:27.492Z,61.01
2019-04-09T12:06:27.496Z,61.49
2019-04-09T12:07:28.231Z,61.68
2019-04-09T12:08:27.601Z,61.68
2019-04-09T12:09:27.816Z,61.49
2019-04-09T12:10:28.025Z,61.49
2019-04-09T12:11:27.489Z,61.68
2019-04-09T12:12:27.526Z,61.68
2019-04-09T12:13:28.555Z,61.68
2019-04-09T12:14:27.703Z,61.68
2019-04-09T12:15:27.486Z,62.16
2019-04-09T12:16:27.481Z,62.16
2019-04-09T12:17:28.195Z,61.87
2019-04-09T12:18:28.068Z,61.30
2019-04-09T12:19:28.370Z,61.58
2019-04-09T12:20:28.427Z,61.68
2019-04-09T12:21:27.483Z,61.49
2019-04-09T12:22:27.958Z,63.02
2019-04-09T12:23:27.475Z,63.45
2019-04-09T12:24:27.479Z,62.87
2019-04-09T12:25:28.142Z,62.19
2019-04-09T12:26:28.550Z,61.52
2019-04-09T12:27:28.519Z,61.71
2019-04-09T12:28:27.466Z,62.58
2019-04-09T12:29:27.786Z,63.02
2019-04-09T12:30:28.286Z,62.48
2019-04-09T12:31:28.141Z,63.15
2019-04-09T12:32:28.765Z,62.00
2019-04-09T12:33:27.467Z,62.48
2019-04-09T12:34:28.429Z,62.38
2019-04-09T12:35:27.460Z,61.52
2019-04-09T12:36:27.453Z,61.61
2019-04-09T12:37:27.454Z,61.55
2019-04-09T12:38:27.455Z,61.16
2019-04-09T12:39:28.398Z,61.46
2019-04-09T12:40:27.448Z,60.97
2019-04-09T12:41:27.776Z,60.27
2019-04-09T12:42:27.448Z,60.17
2019-04-09T12:43:27.446Z,60.17
2019-04-09T12:44:27.659Z,60.34
2019-04-09T12:45:27.447Z,61.11
2019-04-09T12:46:27.445Z,61.30
2019-04-09T12:47:28.187Z,61.68
2019-04-09T12:48:28.286Z,62.16
2019-04-09T12:49:27.452Z,61.97
2019-04-09T12:50:27.438Z,62.26
2019-04-09T12:51:27.432Z,61.68
2019-04-09T12:52:28.066Z,61.40